sensor_id;sensor_type;location;lat;lon;timestamp;temperature;humidity
14783;DHT22;7483;50.498;12.138;2022-08-21T00:01:51;18.70;99.90
14783;DHT22;7483;50.498;12.138;2022-08-21T00:04:19;18.60;99.90
14783;DHT22;7483;50.498;12.138;2022-08-21T00:06:54;18.70;99.90
14783;DHT22;7483;50.498;12.138;2022-08-21T00:09:24;18.70;99.90
14783;DHT22;7483;50.498;12.138;2022-08-21T00:11:52;18.80;99.90
14783;DHT22;7483;50.498;12.138;2022-08-21T00:14:20;18.80;99.90
14783;DHT22;7483;50.498;12.138;2022-08-21T00:16:48;18.80;99.90
14783;DHT22;7483;50.498;12.138;2022-08-21T00:19:17;18.80;99.90
14783;DHT22;7483;50.498;12.138;2022-08-21T00:21:47;18.80;99.90
14783;DHT22;7483;50.498;12.138;2022-08-21T00:24:15;18.80;99.90
14783;DHT22;7483;50.498;12.138;2022-08-21T00:26:44;18.70;99.90
14783;DHT22;7483;50.498;12.138;2022-08-21T00:29:13;18.70;99.90
14783;DHT22;7483;50.498;12.138;2022-08-21T00:31:42;18.70;99.90
14783;DHT22;7483;50.498;12.138;2022-08-21T00:34:11;18.70;99.90
14783;DHT22;7483;50.498;12.138;2022-08-21T00:36:40;18.60;99.90
14783;DHT22;7483;50.498;12.138;2022-08-21T00:39:09;18.60;99.90
14783;DHT22;7483;50.498;12.138;2022-08-21T00:41:39;18.60;99.90
14783;DHT22;7483;50.498;12.138;2022-08-21T00:44:12;18.60;99.90
14783;DHT22;7483;50.498;12.138;2022-08-21T00:46:42;18.50;99.90
14783;DHT22;7483;50.498;12.138;2022-08-21T00:49:11;18.50;99.90
14783;DHT22;7483;50.498;12.138;2022-08-21T00:51:43;18.50;99.90
14783;DHT22;7483;50.498;12.138;2022-08-21T00:54:16;18.60;99.90
14783;DHT22;7483;50.498;12.138;2022-08-21T00:56:50;18.70;99.90
14783;DHT22;7483;50.498;12.138;2022-08-21T00:59:28;18.60;99.90
14783;DHT22;7483;50.498;12.138;2022-08-21T01:02:00;18.60;99.90
14783;DHT22;7483;50.498;12.138;2022-08-21T01:04:28;18.50;99.90
14783;DHT22;7483;50.498;12.138;2022-08-21T01:06:56;18.50;99.90
14783;DHT22;7483;50.498;12.138;2022-08-21T01:09:24;18.60;99.90
14783;DHT22;7483;50.498;12.138;2022-08-21T01:11:53;18.60;99.90
14783;DHT22;7483;50.498;12.138;2022-08-21T01:14:21;18.60;99.90
14783;DHT22;7483;50.498;12.138;2022-08-21T01:16:52;18.50;99.90
14783;DHT22;7483;50.498;12.138;2022-08-21T01:19:22;18.50;99.90
14783;DHT22;7483;50.498;12.138;2022-08-21T01:21:52;18.60;99.90
14783;DHT22;7483;50.498;12.138;2022-08-21T01:24:22;18.60;99.90
14783;DHT22;7483;50.498;12.138;2022-08-21T01:26:51;18.60;99.90
14783;DHT22;7483;50.498;12.138;2022-08-21T01:29:26;18.60;99.90
14783;DHT22;7483;50.498;12.138;2022-08-21T01:32:04;18.60;99.90
14783;DHT22;7483;50.498;12.138;2022-08-21T01:34:37;18.60;99.90
14783;DHT22;7483;50.498;12.138;2022-08-21T01:37:10;18.60;99.90
14783;DHT22;7483;50.498;12.138;2022-08-21T01:39:40;18.60;99.90
14783;DHT22;7483;50.498;12.138;2022-08-21T01:42:10;18.50;99.90
14783;DHT22;7483;50.498;12.138;2022-08-21T01:44:38;18.40;99.90
14783;DHT22;7483;50.498;12.138;2022-08-21T01:47:09;18.30;99.90
14783;DHT22;7483;50.498;12.138;2022-08-21T01:49:39;18.30;99.90
14783;DHT22;7483;50.498;12.138;2022-08-21T01:52:10;18.20;99.90
14783;DHT22;7483;50.498;12.138;2022-08-21T01:54:38;18.30;99.90
14783;DHT22;7483;50.498;12.138;2022-08-21T01:57:08;18.30;99.90
14783;DHT22;7483;50.498;12.138;2022-08-21T01:59:36;18.30;99.90
14783;DHT22;7483;50.498;12.138;2022-08-21T02:02:05;18.30;99.90
14783;DHT22;7483;50.498;12.138;2022-08-21T02:04:34;18.30;99.90
14783;DHT22;7483;50.498;12.138;2022-08-21T02:07:02;18.30;99.90
14783;DHT22;7483;50.498;12.138;2022-08-21T02:09:35;18.30;99.90
14783;DHT22;7483;50.498;12.138;2022-08-21T02:12:06;18.30;99.90
14783;DHT22;7483;50.498;12.138;2022-08-21T02:14:34;18.30;99.90
14783;DHT22;7483;50.498;12.138;2022-08-21T02:17:03;18.40;99.90
14783;DHT22;7483;50.498;12.138;2022-08-21T02:19:36;18.40;99.90
14783;DHT22;7483;50.498;12.138;2022-08-21T02:22:07;18.40;99.90
14783;DHT22;7483;50.498;12.138;2022-08-21T02:24:37;18.40;99.90
14783;DHT22;7483;50.498;12.138;2022-08-21T02:27:21;18.50;99.90
14783;DHT22;7483;50.498;12.138;2022-08-21T02:29:53;18.40;99.90
14783;DHT22;7483;50.498;12.138;2022-08-21T02:32:22;18.40;99.90
14783;DHT22;7483;50.498;12.138;2022-08-21T02:34:50;18.40;99.90
14783;DHT22;7483;50.498;12.138;2022-08-21T02:37:19;18.30;99.90
14783;DHT22;7483;50.498;12.138;2022-08-21T02:39:48;18.30;99.90
14783;DHT22;7483;50.498;12.138;2022-08-21T02:42:16;18.50;99.90
14783;DHT22;7483;50.498;12.138;2022-08-21T02:44:44;18.60;99.90
14783;DHT22;7483;50.498;12.138;2022-08-21T02:47:13;18.50;99.90
14783;DHT22;7483;50.498;12.138;2022-08-21T02:49:41;18.40;99.90
14783;DHT22;7483;50.498;12.138;2022-08-21T02:52:09;18.40;99.90
14783;DHT22;7483;50.498;12.138;2022-08-21T02:54:38;18.50;99.90
14783;DHT22;7483;50.498;12.138;2022-08-21T02:57:07;18.50;99.90
14783;DHT22;7483;50.498;12.138;2022-08-21T02:59:35;18.50;99.90
14783;DHT22;7483;50.498;12.138;2022-08-21T03:02:04;18.60;99.90
14783;DHT22;7483;50.498;12.138;2022-08-21T03:04:32;18.60;99.90
14783;DHT22;7483;50.498;12.138;2022-08-21T03:07:00;18.60;99.90
14783;DHT22;7483;50.498;12.138;2022-08-21T03:09:28;18.60;99.90
14783;DHT22;7483;50.498;12.138;2022-08-21T03:11:55;18.70;99.90
14783;DHT22;7483;50.498;12.138;2022-08-21T03:14:25;18.60;99.90
14783;DHT22;7483;50.498;12.138;2022-08-21T03:16:53;18.60;99.90
14783;DHT22;7483;50.498;12.138;2022-08-21T03:19:21;18.60;99.90
14783;DHT22;7483;50.498;12.138;2022-08-21T03:21:49;18.60;99.90
14783;DHT22;7483;50.498;12.138;2022-08-21T03:24:17;18.60;99.90
14783;DHT22;7483;50.498;12.138;2022-08-21T03:26:48;18.70;99.90
14783;DHT22;7483;50.498;12.138;2022-08-21T03:29:16;18.80;99.90
14783;DHT22;7483;50.498;12.138;2022-08-21T03:31:45;18.80;99.90
14783;DHT22;7483;50.498;12.138;2022-08-21T03:34:14;18.80;99.90
14783;DHT22;7483;50.498;12.138;2022-08-21T03:36:42;18.90;99.90
14783;DHT22;7483;50.498;12.138;2022-08-21T03:39:10;18.80;99.90
14783;DHT22;7483;50.498;12.138;2022-08-21T03:41:38;18.90;99.90
14783;DHT22;7483;50.498;12.138;2022-08-21T03:44:06;18.90;99.90
14783;DHT22;7483;50.498;12.138;2022-08-21T03:46:35;18.90;99.90
14783;DHT22;7483;50.498;12.138;2022-08-21T03:49:04;18.90;99.90
14783;DHT22;7483;50.498;12.138;2022-08-21T03:51:32;18.80;99.90
14783;DHT22;7483;50.498;12.138;2022-08-21T03:54:02;18.80;99.90
14783;DHT22;7483;50.498;12.138;2022-08-21T03:56:30;18.70;99.90
14783;DHT22;7483;50.498;12.138;2022-08-21T03:58:58;18.60;99.90
14783;DHT22;7483;50.498;12.138;2022-08-21T04:01:27;18.40;99.90
14783;DHT22;7483;50.498;12.138;2022-08-21T04:03:55;18.40;99.90
14783;DHT22;7483;50.498;12.138;2022-08-21T04:06:24;18.60;99.90
14783;DHT22;7483;50.498;12.138;2022-08-21T04:08:53;18.60;99.90
14783;DHT22;7483;50.498;12.138;2022-08-21T04:11:21;18.50;99.90
14783;DHT22;7483;50.498;12.138;2022-08-21T04:13:49;18.50;99.90
14783;DHT22;7483;50.498;12.138;2022-08-21T04:16:17;18.60;99.90
14783;DHT22;7483;50.498;12.138;2022-08-21T04:18:46;18.60;99.90
14783;DHT22;7483;50.498;12.138;2022-08-21T04:21:14;18.60;99.90
14783;DHT22;7483;50.498;12.138;2022-08-21T04:23:43;18.60;99.90
14783;DHT22;7483;50.498;12.138;2022-08-21T04:26:14;18.70;99.90
14783;DHT22;7483;50.498;12.138;2022-08-21T04:28:42;18.70;99.90
14783;DHT22;7483;50.498;12.138;2022-08-21T04:31:11;18.80;99.90
14783;DHT22;7483;50.498;12.138;2022-08-21T04:33:39;18.90;99.90
14783;DHT22;7483;50.498;12.138;2022-08-21T04:36:08;18.90;99.90
14783;DHT22;7483;50.498;12.138;2022-08-21T04:38:37;18.90;99.90
14783;DHT22;7483;50.498;12.138;2022-08-21T04:41:11;19.00;99.90
14783;DHT22;7483;50.498;12.138;2022-08-21T04:43:40;18.90;99.90
14783;DHT22;7483;50.498;12.138;2022-08-21T04:46:09;18.90;99.90
14783;DHT22;7483;50.498;12.138;2022-08-21T04:48:39;18.90;99.90
14783;DHT22;7483;50.498;12.138;2022-08-21T04:51:10;18.90;99.90
14783;DHT22;7483;50.498;12.138;2022-08-21T04:53:44;18.90;99.90
14783;DHT22;7483;50.498;12.138;2022-08-21T04:56:22;18.90;99.90
14783;DHT22;7483;50.498;12.138;2022-08-21T04:58:53;18.90;99.90
14783;DHT22;7483;50.498;12.138;2022-08-21T05:01:27;18.90;99.90
14783;DHT22;7483;50.498;12.138;2022-08-21T05:03:59;18.90;99.90
14783;DHT22;7483;50.498;12.138;2022-08-21T05:06:33;18.90;99.90
14783;DHT22;7483;50.498;12.138;2022-08-21T05:09:04;18.90;99.90
14783;DHT22;7483;50.498;12.138;2022-08-21T05:11:34;18.90;99.90
14783;DHT22;7483;50.498;12.138;2022-08-21T05:14:03;19.00;99.90
14783;DHT22;7483;50.498;12.138;2022-08-21T05:16:32;19.00;99.90
14783;DHT22;7483;50.498;12.138;2022-08-21T05:19:04;19.00;99.90
14783;DHT22;7483;50.498;12.138;2022-08-21T05:21:33;19.00;99.90
14783;DHT22;7483;50.498;12.138;2022-08-21T05:24:01;19.00;99.90
14783;DHT22;7483;50.498;12.138;2022-08-21T05:26:30;19.10;99.90
14783;DHT22;7483;50.498;12.138;2022-08-21T05:28:59;19.10;99.90
14783;DHT22;7483;50.498;12.138;2022-08-21T05:31:27;19.10;99.90
14783;DHT22;7483;50.498;12.138;2022-08-21T05:33:55;19.10;99.90
14783;DHT22;7483;50.498;12.138;2022-08-21T05:36:24;19.10;99.90
14783;DHT22;7483;50.498;12.138;2022-08-21T05:38:52;19.10;99.90
14783;DHT22;7483;50.498;12.138;2022-08-21T05:41:20;19.20;99.90
14783;DHT22;7483;50.498;12.138;2022-08-21T05:43:49;19.10;99.90
14783;DHT22;7483;50.498;12.138;2022-08-21T05:46:18;19.10;99.90
14783;DHT22;7483;50.498;12.138;2022-08-21T05:48:46;19.10;99.90
14783;DHT22;7483;50.498;12.138;2022-08-21T05:51:15;19.10;99.90
14783;DHT22;7483;50.498;12.138;2022-08-21T05:53:44;19.10;99.90
14783;DHT22;7483;50.498;12.138;2022-08-21T05:56:13;19.10;99.90
14783;DHT22;7483;50.498;12.138;2022-08-21T05:58:42;19.20;99.90
14783;DHT22;7483;50.498;12.138;2022-08-21T06:01:10;19.20;99.90
14783;DHT22;7483;50.498;12.138;2022-08-21T06:03:40;19.20;99.90
14783;DHT22;7483;50.498;12.138;2022-08-21T06:06:09;19.20;99.90
14783;DHT22;7483;50.498;12.138;2022-08-21T06:08:37;19.20;99.90
14783;DHT22;7483;50.498;12.138;2022-08-21T06:11:06;19.20;99.90
14783;DHT22;7483;50.498;12.138;2022-08-21T06:13:35;19.20;99.90
14783;DHT22;7483;50.498;12.138;2022-08-21T06:16:06;19.10;99.90
14783;DHT22;7483;50.498;12.138;2022-08-21T06:18:37;19.10;99.90
14783;DHT22;7483;50.498;12.138;2022-08-21T06:21:07;19.10;99.90
14783;DHT22;7483;50.498;12.138;2022-08-21T06:23:38;19.10;99.90
14783;DHT22;7483;50.498;12.138;2022-08-21T06:26:10;19.20;99.90
14783;DHT22;7483;50.498;12.138;2022-08-21T06:28:41;19.20;99.90
14783;DHT22;7483;50.498;12.138;2022-08-21T06:31:12;19.20;99.90
14783;DHT22;7483;50.498;12.138;2022-08-21T06:33:41;19.20;99.90
14783;DHT22;7483;50.498;12.138;2022-08-21T06:36:10;19.20;99.90
14783;DHT22;7483;50.498;12.138;2022-08-21T06:38:39;19.30;99.90
14783;DHT22;7483;50.498;12.138;2022-08-21T06:41:17;19.30;99.90
14783;DHT22;7483;50.498;12.138;2022-08-21T06:43:52;19.30;99.90
14783;DHT22;7483;50.498;12.138;2022-08-21T06:46:20;19.30;99.90
14783;DHT22;7483;50.498;12.138;2022-08-21T06:48:49;19.30;99.90
14783;DHT22;7483;50.498;12.138;2022-08-21T06:51:18;19.30;99.90
14783;DHT22;7483;50.498;12.138;2022-08-21T06:53:46;19.30;99.90
14783;DHT22;7483;50.498;12.138;2022-08-21T06:56:14;19.30;99.90
14783;DHT22;7483;50.498;12.138;2022-08-21T06:58:42;19.30;99.90
14783;DHT22;7483;50.498;12.138;2022-08-21T07:01:11;19.40;99.90
14783;DHT22;7483;50.498;12.138;2022-08-21T07:03:41;19.30;99.90
14783;DHT22;7483;50.498;12.138;2022-08-21T07:06:10;19.30;99.90
14783;DHT22;7483;50.498;12.138;2022-08-21T07:08:40;19.20;99.90
14783;DHT22;7483;50.498;12.138;2022-08-21T07:11:11;19.20;99.90
14783;DHT22;7483;50.498;12.138;2022-08-21T07:13:42;19.20;99.90
14783;DHT22;7483;50.498;12.138;2022-08-21T07:16:10;19.30;99.90
14783;DHT22;7483;50.498;12.138;2022-08-21T07:18:38;19.40;99.90
14783;DHT22;7483;50.498;12.138;2022-08-21T07:21:07;19.30;99.90
14783;DHT22;7483;50.498;12.138;2022-08-21T07:23:38;19.40;99.90
14783;DHT22;7483;50.498;12.138;2022-08-21T07:26:10;19.30;99.90
14783;DHT22;7483;50.498;12.138;2022-08-21T07:28:38;19.30;99.90
14783;DHT22;7483;50.498;12.138;2022-08-21T07:31:09;19.30;99.90
14783;DHT22;7483;50.498;12.138;2022-08-21T07:33:41;19.30;99.90
14783;DHT22;7483;50.498;12.138;2022-08-21T07:36:10;19.40;99.90
14783;DHT22;7483;50.498;12.138;2022-08-21T07:38:38;19.60;99.90
14783;DHT22;7483;50.498;12.138;2022-08-21T07:41:14;19.70;99.90
14783;DHT22;7483;50.498;12.138;2022-08-21T07:43:44;19.90;99.90
14783;DHT22;7483;50.498;12.138;2022-08-21T07:46:13;20.00;99.90
14783;DHT22;7483;50.498;12.138;2022-08-21T07:48:41;20.20;99.90
14783;DHT22;7483;50.498;12.138;2022-08-21T07:51:12;20.30;99.90
14783;DHT22;7483;50.498;12.138;2022-08-21T07:53:41;20.40;99.90
14783;DHT22;7483;50.498;12.138;2022-08-21T07:56:10;20.50;99.90
14783;DHT22;7483;50.498;12.138;2022-08-21T07:58:38;20.60;99.90
14783;DHT22;7483;50.498;12.138;2022-08-21T08:01:06;20.60;99.90
14783;DHT22;7483;50.498;12.138;2022-08-21T08:03:35;20.50;99.90
14783;DHT22;7483;50.498;12.138;2022-08-21T08:06:04;20.50;99.90
14783;DHT22;7483;50.498;12.138;2022-08-21T08:08:32;20.50;99.90
14783;DHT22;7483;50.498;12.138;2022-08-21T08:11:00;20.60;99.90
14783;DHT22;7483;50.498;12.138;2022-08-21T08:13:30;20.70;99.90
14783;DHT22;7483;50.498;12.138;2022-08-21T08:15:58;20.80;99.90
14783;DHT22;7483;50.498;12.138;2022-08-21T08:18:26;20.80;99.90
14783;DHT22;7483;50.498;12.138;2022-08-21T08:20:54;20.80;99.90
14783;DHT22;7483;50.498;12.138;2022-08-21T08:23:22;20.90;99.90
14783;DHT22;7483;50.498;12.138;2022-08-21T08:25:50;21.10;99.90
14783;DHT22;7483;50.498;12.138;2022-08-21T08:28:18;21.10;99.90
14783;DHT22;7483;50.498;12.138;2022-08-21T08:30:47;21.30;99.90
14783;DHT22;7483;50.498;12.138;2022-08-21T08:33:16;21.40;99.90
14783;DHT22;7483;50.498;12.138;2022-08-21T08:35:46;21.60;99.90
14783;DHT22;7483;50.498;12.138;2022-08-21T08:38:16;21.80;99.90
14783;DHT22;7483;50.498;12.138;2022-08-21T08:40:55;21.90;99.90
14783;DHT22;7483;50.498;12.138;2022-08-21T08:43:30;22.00;99.90
14783;DHT22;7483;50.498;12.138;2022-08-21T08:46:04;22.10;99.90
14783;DHT22;7483;50.498;12.138;2022-08-21T08:48:45;22.10;99.90
14783;DHT22;7483;50.498;12.138;2022-08-21T08:51:22;22.10;99.90
14783;DHT22;7483;50.498;12.138;2022-08-21T08:53:59;22.20;99.90
14783;DHT22;7483;50.498;12.138;2022-08-21T08:56:31;22.30;99.90
14783;DHT22;7483;50.498;12.138;2022-08-21T08:59:05;22.30;99.90
14783;DHT22;7483;50.498;12.138;2022-08-21T09:01:39;22.40;99.90
14783;DHT22;7483;50.498;12.138;2022-08-21T09:04:07;22.50;99.90
14783;DHT22;7483;50.498;12.138;2022-08-21T09:06:50;22.60;99.90
14783;DHT22;7483;50.498;12.138;2022-08-21T09:09:36;22.70;99.90
14783;DHT22;7483;50.498;12.138;2022-08-21T09:12:18;22.70;99.90
14783;DHT22;7483;50.498;12.138;2022-08-21T09:15:03;22.60;99.90
14783;DHT22;7483;50.498;12.138;2022-08-21T09:17:53;22.60;99.90
14783;DHT22;7483;50.498;12.138;2022-08-21T09:20:37;22.50;99.90
14783;DHT22;7483;50.498;12.138;2022-08-21T09:23:21;22.50;99.90
14783;DHT22;7483;50.498;12.138;2022-08-21T09:25:59;22.50;99.90
14783;DHT22;7483;50.498;12.138;2022-08-21T09:28:32;22.60;99.90
14783;DHT22;7483;50.498;12.138;2022-08-21T09:31:04;22.70;99.90
14783;DHT22;7483;50.498;12.138;2022-08-21T09:33:36;22.80;99.90
14783;DHT22;7483;50.498;12.138;2022-08-21T09:36:04;22.80;99.90
14783;DHT22;7483;50.498;12.138;2022-08-21T09:38:34;22.90;99.90
14783;DHT22;7483;50.498;12.138;2022-08-21T09:41:05;23.00;99.90
14783;DHT22;7483;50.498;12.138;2022-08-21T09:43:37;23.20;99.90
14783;DHT22;7483;50.498;12.138;2022-08-21T09:46:10;23.30;99.90
14783;DHT22;7483;50.498;12.138;2022-08-21T09:48:44;23.40;99.90
14783;DHT22;7483;50.498;12.138;2022-08-21T09:51:17;23.50;99.90
14783;DHT22;7483;50.498;12.138;2022-08-21T09:53:51;23.50;99.90
14783;DHT22;7483;50.498;12.138;2022-08-21T09:56:28;23.50;99.90
14783;DHT22;7483;50.498;12.138;2022-08-21T09:59:20;23.50;99.90
14783;DHT22;7483;50.498;12.138;2022-08-21T10:01:58;23.50;99.90
14783;DHT22;7483;50.498;12.138;2022-08-21T10:04:31;23.50;99.90
14783;DHT22;7483;50.498;12.138;2022-08-21T10:07:08;23.40;99.90
14783;DHT22;7483;50.498;12.138;2022-08-21T10:09:36;23.40;99.90
14783;DHT22;7483;50.498;12.138;2022-08-21T10:12:11;23.30;99.90
14783;DHT22;7483;50.498;12.138;2022-08-21T10:14:54;23.20;99.90
14783;DHT22;7483;50.498;12.138;2022-08-21T10:17:36;23.10;99.90
14783;DHT22;7483;50.498;12.138;2022-08-21T10:20:17;23.20;99.90
14783;DHT22;7483;50.498;12.138;2022-08-21T10:23:00;23.30;99.90
14783;DHT22;7483;50.498;12.138;2022-08-21T10:25:40;23.40;99.90
14783;DHT22;7483;50.498;12.138;2022-08-21T10:28:36;23.20;99.90
14783;DHT22;7483;50.498;12.138;2022-08-21T10:31:16;23.20;99.90
14783;DHT22;7483;50.498;12.138;2022-08-21T10:33:55;23.40;99.90
14783;DHT22;7483;50.498;12.138;2022-08-21T10:36:39;23.50;99.90
14783;DHT22;7483;50.498;12.138;2022-08-21T10:39:19;23.60;99.90
14783;DHT22;7483;50.498;12.138;2022-08-21T10:42:21;23.70;99.90
14783;DHT22;7483;50.498;12.138;2022-08-21T10:45:07;23.80;99.90
14783;DHT22;7483;50.498;12.138;2022-08-21T10:47:45;24.00;99.90
14783;DHT22;7483;50.498;12.138;2022-08-21T10:50:34;24.20;99.90
14783;DHT22;7483;50.498;12.138;2022-08-21T10:53:28;24.40;99.90
14783;DHT22;7483;50.498;12.138;2022-08-21T10:56:17;24.60;99.90
14783;DHT22;7483;50.498;12.138;2022-08-21T10:59:04;24.90;99.90
14783;DHT22;7483;50.498;12.138;2022-08-21T11:01:50;25.10;99.90
14783;DHT22;7483;50.498;12.138;2022-08-21T11:04:27;25.30;99.90
14783;DHT22;7483;50.498;12.138;2022-08-21T11:07:19;25.40;99.90
14783;DHT22;7483;50.498;12.138;2022-08-21T11:09:54;25.30;99.90
14783;DHT22;7483;50.498;12.138;2022-08-21T11:12:31;24.80;99.90
14783;DHT22;7483;50.498;12.138;2022-08-21T11:15:11;24.60;99.90
14783;DHT22;7483;50.498;12.138;2022-08-21T11:18:01;24.50;99.90
14783;DHT22;7483;50.498;12.138;2022-08-21T11:20:42;24.50;99.90
14783;DHT22;7483;50.498;12.138;2022-08-21T11:23:18;24.70;99.90
14783;DHT22;7483;50.498;12.138;2022-08-21T11:25:57;24.80;99.90
14783;DHT22;7483;50.498;12.138;2022-08-21T11:28:33;24.90;99.90
14783;DHT22;7483;50.498;12.138;2022-08-21T11:31:12;25.10;99.90
14783;DHT22;7483;50.498;12.138;2022-08-21T11:34:01;25.20;99.90
14783;DHT22;7483;50.498;12.138;2022-08-21T11:36:44;25.40;99.90
14783;DHT22;7483;50.498;12.138;2022-08-21T11:39:24;25.60;99.90
14783;DHT22;7483;50.498;12.138;2022-08-21T11:42:05;25.70;99.90
14783;DHT22;7483;50.498;12.138;2022-08-21T11:44:49;25.70;99.90
14783;DHT22;7483;50.498;12.138;2022-08-21T11:47:39;25.70;99.90
14783;DHT22;7483;50.498;12.138;2022-08-21T11:50:23;25.70;99.90
14783;DHT22;7483;50.498;12.138;2022-08-21T11:53:04;25.40;99.90
14783;DHT22;7483;50.498;12.138;2022-08-21T11:55:41;25.30;99.90
14783;DHT22;7483;50.498;12.138;2022-08-21T11:58:17;25.00;99.90
14783;DHT22;7483;50.498;12.138;2022-08-21T12:00:53;24.90;99.90
14783;DHT22;7483;50.498;12.138;2022-08-21T12:03:26;24.90;99.90
14783;DHT22;7483;50.498;12.138;2022-08-21T12:05:58;24.80;99.90
14783;DHT22;7483;50.498;12.138;2022-08-21T12:08:31;25.00;99.90
14783;DHT22;7483;50.498;12.138;2022-08-21T12:11:05;25.20;99.90
14783;DHT22;7483;50.498;12.138;2022-08-21T12:13:37;25.40;99.90
14783;DHT22;7483;50.498;12.138;2022-08-21T12:16:11;25.80;99.90
14783;DHT22;7483;50.498;12.138;2022-08-21T12:18:40;26.20;99.90
14783;DHT22;7483;50.498;12.138;2022-08-21T12:21:24;26.30;99.90
14783;DHT22;7483;50.498;12.138;2022-08-21T12:24:03;26.20;99.90
14783;DHT22;7483;50.498;12.138;2022-08-21T12:26:49;26.10;99.90
14783;DHT22;7483;50.498;12.138;2022-08-21T12:29:26;26.10;99.90
14783;DHT22;7483;50.498;12.138;2022-08-21T12:31:59;26.00;99.90
14783;DHT22;7483;50.498;12.138;2022-08-21T12:34:33;26.00;99.90
14783;DHT22;7483;50.498;12.138;2022-08-21T12:37:09;26.10;99.90
14783;DHT22;7483;50.498;12.138;2022-08-21T12:39:47;26.10;99.90
14783;DHT22;7483;50.498;12.138;2022-08-21T12:42:21;26.10;99.90
14783;DHT22;7483;50.498;12.138;2022-08-21T12:44:56;26.10;99.90
14783;DHT22;7483;50.498;12.138;2022-08-21T12:47:33;26.00;99.90
14783;DHT22;7483;50.498;12.138;2022-08-21T12:50:09;25.80;99.90
14783;DHT22;7483;50.498;12.138;2022-08-21T12:52:42;25.80;99.90
14783;DHT22;7483;50.498;12.138;2022-08-21T12:55:15;25.90;99.90
14783;DHT22;7483;50.498;12.138;2022-08-21T12:57:43;25.90;99.90
14783;DHT22;7483;50.498;12.138;2022-08-21T13:00:20;26.10;99.90
14783;DHT22;7483;50.498;12.138;2022-08-21T13:02:50;26.20;99.90
14783;DHT22;7483;50.498;12.138;2022-08-21T13:05:27;26.30;99.90
14783;DHT22;7483;50.498;12.138;2022-08-21T13:08:02;26.40;99.90
14783;DHT22;7483;50.498;12.138;2022-08-21T13:10:33;26.60;99.90
14783;DHT22;7483;50.498;12.138;2022-08-21T13:13:06;26.80;99.90
14783;DHT22;7483;50.498;12.138;2022-08-21T13:15:41;26.90;99.90
14783;DHT22;7483;50.498;12.138;2022-08-21T13:18:21;26.80;99.90
14783;DHT22;7483;50.498;12.138;2022-08-21T13:20:51;26.80;99.90
14783;DHT22;7483;50.498;12.138;2022-08-21T13:23:23;26.80;99.90
14783;DHT22;7483;50.498;12.138;2022-08-21T13:25:53;26.90;99.90
14783;DHT22;7483;50.498;12.138;2022-08-21T13:28:22;27.00;99.90
14783;DHT22;7483;50.498;12.138;2022-08-21T13:30:54;27.00;99.90
14783;DHT22;7483;50.498;12.138;2022-08-21T13:33:25;26.90;99.90
14783;DHT22;7483;50.498;12.138;2022-08-21T13:36:06;26.90;99.90
14783;DHT22;7483;50.498;12.138;2022-08-21T13:38:40;27.00;99.90
14783;DHT22;7483;50.498;12.138;2022-08-21T13:41:16;27.00;99.90
14783;DHT22;7483;50.498;12.138;2022-08-21T13:43:50;27.00;99.90
14783;DHT22;7483;50.498;12.138;2022-08-21T13:46:28;26.90;99.90
14783;DHT22;7483;50.498;12.138;2022-08-21T13:48:59;26.90;99.90
14783;DHT22;7483;50.498;12.138;2022-08-21T13:51:30;26.90;99.90
14783;DHT22;7483;50.498;12.138;2022-08-21T13:53:59;27.00;99.90
14783;DHT22;7483;50.498;12.138;2022-08-21T13:56:31;27.00;99.90
14783;DHT22;7483;50.498;12.138;2022-08-21T13:59:08;27.00;99.90
14783;DHT22;7483;50.498;12.138;2022-08-21T14:01:51;27.10;99.90
14783;DHT22;7483;50.498;12.138;2022-08-21T14:04:31;27.20;99.90
14783;DHT22;7483;50.498;12.138;2022-08-21T14:07:15;27.20;99.90
14783;DHT22;7483;50.498;12.138;2022-08-21T14:09:46;27.20;99.90
14783;DHT22;7483;50.498;12.138;2022-08-21T14:12:17;27.20;99.90
14783;DHT22;7483;50.498;12.138;2022-08-21T14:14:51;27.00;99.90
14783;DHT22;7483;50.498;12.138;2022-08-21T14:17:31;26.80;99.90
14783;DHT22;7483;50.498;12.138;2022-08-21T14:20:00;26.70;99.90
14783;DHT22;7483;50.498;12.138;2022-08-21T14:22:32;26.70;99.90
14783;DHT22;7483;50.498;12.138;2022-08-21T14:25:08;26.60;99.90
14783;DHT22;7483;50.498;12.138;2022-08-21T14:27:43;26.60;99.90
14783;DHT22;7483;50.498;12.138;2022-08-21T14:30:19;26.70;99.90
14783;DHT22;7483;50.498;12.138;2022-08-21T14:32:50;26.60;99.90
14783;DHT22;7483;50.498;12.138;2022-08-21T14:35:19;26.50;99.90
14783;DHT22;7483;50.498;12.138;2022-08-21T14:37:51;26.50;99.90
14783;DHT22;7483;50.498;12.138;2022-08-21T14:40:22;26.30;99.90
14783;DHT22;7483;50.498;12.138;2022-08-21T14:42:52;26.10;99.90
14783;DHT22;7483;50.498;12.138;2022-08-21T14:45:26;25.90;99.90
14783;DHT22;7483;50.498;12.138;2022-08-21T14:47:58;25.90;99.90
14783;DHT22;7483;50.498;12.138;2022-08-21T14:50:26;26.00;99.90
14783;DHT22;7483;50.498;12.138;2022-08-21T14:52:55;26.10;99.90
14783;DHT22;7483;50.498;12.138;2022-08-21T14:55:23;26.20;99.90
14783;DHT22;7483;50.498;12.138;2022-08-21T14:57:52;26.20;99.90
14783;DHT22;7483;50.498;12.138;2022-08-21T15:00:23;26.30;99.90
14783;DHT22;7483;50.498;12.138;2022-08-21T15:03:03;26.40;99.90
14783;DHT22;7483;50.498;12.138;2022-08-21T15:05:31;26.30;99.90
14783;DHT22;7483;50.498;12.138;2022-08-21T15:08:00;26.30;99.90
14783;DHT22;7483;50.498;12.138;2022-08-21T15:10:30;26.20;99.90
14783;DHT22;7483;50.498;12.138;2022-08-21T15:13:00;26.10;99.90
14783;DHT22;7483;50.498;12.138;2022-08-21T15:15:29;26.10;99.90
14783;DHT22;7483;50.498;12.138;2022-08-21T15:18:03;26.10;99.90
14783;DHT22;7483;50.498;12.138;2022-08-21T15:20:31;26.20;99.90
14783;DHT22;7483;50.498;12.138;2022-08-21T15:22:59;26.20;99.90
14783;DHT22;7483;50.498;12.138;2022-08-21T15:25:27;26.20;99.90
14783;DHT22;7483;50.498;12.138;2022-08-21T15:27:56;26.20;99.90
14783;DHT22;7483;50.498;12.138;2022-08-21T15:30:27;26.20;99.90
14783;DHT22;7483;50.498;12.138;2022-08-21T15:32:57;26.20;99.90
14783;DHT22;7483;50.498;12.138;2022-08-21T15:35:27;26.10;99.90
14783;DHT22;7483;50.498;12.138;2022-08-21T15:37:55;26.00;99.90
14783;DHT22;7483;50.498;12.138;2022-08-21T15:40:23;25.90;99.90
14783;DHT22;7483;50.498;12.138;2022-08-21T15:42:54;25.80;99.90
14783;DHT22;7483;50.498;12.138;2022-08-21T15:45:25;25.70;99.90
14783;DHT22;7483;50.498;12.138;2022-08-21T15:47:54;25.60;99.90
14783;DHT22;7483;50.498;12.138;2022-08-21T15:50:23;25.50;99.90
14783;DHT22;7483;50.498;12.138;2022-08-21T15:52:53;25.50;99.90
14783;DHT22;7483;50.498;12.138;2022-08-21T15:55:23;25.50;99.90
14783;DHT22;7483;50.498;12.138;2022-08-21T15:57:51;25.50;99.90
14783;DHT22;7483;50.498;12.138;2022-08-21T16:00:24;25.50;99.90
14783;DHT22;7483;50.498;12.138;2022-08-21T16:02:57;25.50;99.90